createdAt,value
2019-04-25T00:00:34.371Z,52.40
2019-04-25T00:03:03.278Z,52.14
2019-04-25T00:05:32.331Z,52.48
2019-04-25T00:08:01.531Z,52.47
2019-04-25T00:10:31.790Z,53.17
2019-04-25T00:13:01.677Z,53.19
2019-04-25T00:15:31.857Z,53.33
2019-04-25T00:18:02.248Z,53.11
2019-04-25T00:20:32.215Z,53.37
2019-04-25T00:23:11.758Z,52.89
2019-04-25T00:25:45.220Z,52.83
2019-04-25T00:28:11.978Z,52.97
2019-04-25T00:30:42.626Z,53.22
2019-04-25T00:33:11.612Z,53.42
2019-04-25T00:35:42.538Z,53.46
2019-04-25T00:38:12.109Z,53.66
2019-04-25T00:40:42.719Z,53.51
2019-04-25T00:43:11.420Z,53.98
2019-04-25T00:45:41.498Z,53.59
2019-04-25T00:48:10.067Z,53.79
2019-04-25T00:50:38.472Z,53.87
2019-04-25T00:53:06.844Z,54.18
2019-04-25T00:55:35.234Z,54.20
2019-04-25T00:58:07.826Z,54.09
2019-04-25T01:00:37.819Z,54.33
2019-04-25T01:03:07.880Z,54.06
2019-04-25T01:05:36.199Z,54.02
2019-04-25T01:08:04.568Z,54.48
2019-04-25T01:10:33.044Z,54.34
2019-04-25T01:13:03.059Z,54.72
2019-04-25T01:15:31.598Z,54.77
2019-04-25T01:18:01.182Z,54.45
2019-04-25T01:20:29.741Z,54.65
2019-04-25T01:23:00.803Z,54.37
2019-04-25T01:25:38.620Z,54.27
2019-04-25T01:27:58.713Z,54.26
2019-04-25T01:30:27.991Z,54.73
2019-04-25T01:32:56.749Z,54.91
2019-04-25T01:35:26.776Z,54.96
2019-04-25T01:38:13.714Z,54.95
2019-04-25T01:41:03.396Z,54.60
2019-04-25T01:43:52.769Z,54.50
2019-04-25T01:46:19.838Z,54.65
2019-04-25T01:48:48.610Z,54.57
2019-04-25T01:51:17.266Z,54.83
2019-04-25T01:53:45.627Z,55.12
2019-04-25T01:56:14.472Z,55.51
2019-04-25T01:58:43.800Z,55.49
2019-04-25T02:01:14.346Z,55.78
2019-04-25T02:03:44.230Z,56.00
2019-04-25T02:06:13.675Z,55.48
2019-04-25T02:08:44.172Z,55.79
2019-04-25T02:11:16.660Z,55.94
2019-04-25T02:13:45.227Z,56.36
2019-04-25T02:16:14.202Z,56.65
2019-04-25T02:18:43.571Z,56.88
2019-04-25T02:21:13.625Z,56.50
2019-04-25T02:23:44.045Z,56.43
2019-04-25T02:26:16.710Z,56.64
2019-04-25T02:28:43.705Z,56.72
2019-04-25T02:31:18.011Z,56.96
2019-04-25T02:33:44.227Z,57.18
2019-04-25T02:36:15.057Z,57.07
2019-04-25T02:38:44.242Z,56.73
2019-04-25T02:41:14.761Z,56.57
2019-04-25T02:43:45.030Z,56.65
2019-04-25T02:46:26.701Z,56.63
2019-04-25T02:49:06.698Z,56.59
2019-04-25T02:51:35.022Z,57.09
2019-04-25T02:54:06.737Z,57.56
2019-04-25T02:56:38.236Z,57.38
2019-04-25T02:59:06.989Z,57.48
2019-04-25T03:01:34.312Z,57.32
2019-04-25T03:04:04.931Z,56.87
2019-04-25T03:06:35.029Z,56.79
2019-04-25T03:09:05.671Z,57.26
2019-04-25T03:11:34.716Z,57.06
2019-04-25T03:14:06.348Z,57.27
2019-04-25T03:16:34.761Z,56.98
2019-04-25T03:19:16.978Z,57.28
2019-04-25T03:21:47.863Z,57.75
2019-04-25T03:24:16.894Z,57.41
2019-04-25T03:26:45.741Z,57.90
2019-04-25T03:29:14.225Z,57.67
2019-04-25T03:31:45.000Z,58.10
2019-04-25T03:34:17.234Z,58.05
2019-04-25T03:36:43.841Z,58.19
2019-04-25T03:39:14.448Z,57.81
2019-04-25T03:41:43.864Z,58.39
2019-04-25T03:44:13.945Z,57.99
2019-04-25T03:46:43.798Z,57.85
2019-04-25T03:49:13.559Z,57.59
2019-04-25T03:51:43.869Z,57.74
2019-04-25T03:54:14.306Z,57.53
2019-04-25T03:56:53.233Z,57.95
2019-04-25T03:59:14.664Z,57.89
2019-04-25T04:01:45.404Z,57.54
2019-04-25T04:04:16.312Z,58.22
2019-04-25T04:06:44.159Z,58.42
2019-04-25T04:09:14.255Z,58.36
2019-04-25T04:11:43.531Z,57.26
2019-04-25T04:14:12.973Z,57.47
2019-04-25T04:16:44.360Z,58.03
2019-04-25T04:19:14.734Z,58.30
2019-04-25T04:21:53.123Z,59.00
2019-04-25T04:24:26.142Z,59.16
2019-04-25T04:27:11.105Z,59.59
2019-04-25T04:29:40.499Z,60.43
2019-04-25T04:32:08.856Z,60.38
2019-04-25T04:34:37.314Z,60.82
2019-04-25T04:37:05.718Z,60.43
2019-04-25T04:39:34.397Z,60.57
2019-04-25T04:42:03.831Z,60.46
2019-04-25T04:44:34.195Z,61.01
2019-04-25T04:47:03.978Z,60.84
2019-04-25T04:49:34.047Z,61.00
2019-04-25T04:52:04.523Z,60.33
2019-04-25T04:54:34.421Z,60.18
2019-04-25T04:57:16.686Z,59.98
2019-04-25T04:59:33.826Z,60.01
2019-04-25T05:02:06.836Z,59.93
2019-04-25T05:04:37.645Z,59.92
2019-04-25T05:07:15.033Z,59.96
2019-04-25T05:09:43.605Z,59.71
2019-04-25T05:12:13.055Z,60.01
2019-04-25T05:14:41.707Z,59.98
2019-04-25T05:17:10.242Z,59.87
2019-04-25T05:19:38.696Z,59.77
2019-04-25T05:22:07.237Z,59.50
2019-04-25T05:24:35.709Z,59.40
2019-04-25T05:27:04.254Z,59.15
2019-04-25T05:29:33.975Z,59.05
2019-04-25T05:32:04.139Z,58.80
2019-04-25T05:34:34.226Z,58.52
2019-04-25T05:37:03.859Z,58.30
2019-04-25T05:39:33.436Z,57.44
2019-04-25T05:42:07.740Z,56.42
2019-04-25T05:44:36.199Z,54.29
2019-04-25T05:47:04.919Z,51.64
2019-04-25T05:49:34.291Z,48.96
2019-04-25T05:52:04.010Z,46.70
2019-04-25T05:54:33.994Z,43.87
2019-04-25T05:57:03.730Z,42.20
2019-04-25T05:59:33.532Z,39.95
2019-04-25T06:02:03.834Z,39.23
2019-04-25T06:04:33.524Z,38.04
2019-04-25T06:07:02.036Z,36.80
2019-04-25T06:09:38.273Z,35.60
2019-04-25T06:12:14.439Z,35.39
2019-04-25T06:14:43.394Z,33.98
2019-04-25T06:17:13.751Z,32.95
2019-04-25T06:19:43.690Z,32.20
2019-04-25T06:22:19.952Z,31.77
2019-04-25T06:24:50.949Z,31.50
2019-04-25T06:27:20.905Z,31.37
2019-04-25T06:29:58.167Z,30.55
2019-04-25T06:32:21.523Z,29.69
2019-04-25T06:34:50.058Z,30.26
2019-04-25T06:37:18.428Z,31.30
2019-04-25T06:39:46.834Z,32.16
2019-04-25T06:42:15.204Z,33.29
2019-04-25T06:44:54.250Z,34.26
2019-04-25T06:47:30.080Z,35.15
2019-04-25T06:49:58.416Z,35.71
2019-04-25T06:52:30.023Z,35.58
2019-04-25T06:54:57.099Z,36.36
2019-04-25T06:57:26.975Z,37.69
2019-04-25T06:59:55.464Z,38.77
2019-04-25T07:02:25.388Z,39.51
2019-04-25T07:04:54.093Z,40.04
2019-04-25T07:07:24.543Z,39.85
2019-04-25T07:09:53.511Z,40.34
2019-04-25T07:12:26.267Z,40.15
2019-04-25T07:14:53.933Z,40.55
2019-04-25T07:17:24.094Z,40.91
2019-04-25T07:19:54.141Z,40.68
2019-04-25T07:22:23.968Z,40.57
2019-04-25T07:24:53.753Z,40.35
2019-04-25T07:27:26.650Z,39.66
2019-04-25T07:30:26.700Z,39.56
2019-04-25T07:32:48.904Z,38.81
2019-04-25T07:35:17.451Z,38.90
2019-04-25T07:37:45.840Z,38.52
2019-04-25T07:40:14.856Z,38.54
2019-04-25T07:42:43.914Z,38.52
2019-04-25T07:45:14.110Z,37.87
2019-04-25T07:47:44.142Z,36.45
2019-04-25T07:50:15.090Z,36.55
2019-04-25T07:52:44.324Z,37.58
2019-04-25T07:55:13.775Z,36.17
2019-04-25T07:57:44.178Z,35.64
2019-04-25T08:00:14.313Z,34.91
2019-04-25T08:02:43.575Z,34.91
2019-04-25T08:05:14.475Z,34.88
2019-04-25T08:07:43.672Z,34.48
2019-04-25T08:10:14.009Z,34.40
2019-04-25T08:12:44.400Z,34.14
2019-04-25T08:15:31.796Z,33.99
2019-04-25T08:18:04.540Z,33.08
2019-04-25T08:20:34.739Z,32.35
2019-04-25T08:23:04.376Z,33.14
2019-04-25T08:25:33.503Z,32.66
2019-04-25T08:28:03.852Z,32.26
2019-04-25T08:30:34.177Z,32.14
2019-04-25T08:33:03.976Z,31.37
2019-04-25T08:35:34.202Z,31.67
2019-04-25T08:38:03.707Z,30.63
2019-04-25T08:40:35.815Z,30.59
2019-04-25T08:43:03.518Z,30.56
2019-04-25T08:45:33.555Z,29.98
2019-04-25T08:48:03.640Z,29.35
2019-04-25T08:50:41.058Z,29.56
2019-04-25T08:53:09.821Z,29.83
2019-04-25T08:55:44.447Z,28.92
2019-04-25T08:58:14.324Z,28.91
2019-04-25T09:00:58.062Z,28.08
2019-04-25T09:03:18.872Z,28.37
2019-04-25T09:05:49.084Z,28.72
2019-04-25T09:08:17.453Z,27.86
2019-04-25T09:10:45.843Z,27.67
2019-04-25T09:13:14.161Z,26.61
2019-04-25T09:15:45.449Z,27.52
2019-04-25T09:18:14.103Z,27.04
2019-04-25T09:20:43.871Z,26.89
2019-04-25T09:23:13.628Z,26.56
2019-04-25T09:25:44.454Z,26.35
2019-04-25T09:28:13.789Z,27.12
2019-04-25T09:30:44.470Z,26.62
2019-04-25T09:33:13.362Z,26.76
2019-04-25T09:35:41.994Z,25.92
2019-04-25T09:38:10.524Z,25.94
2019-04-25T09:40:39.525Z,26.62
2019-04-25T09:43:07.846Z,24.77
2019-04-25T09:45:40.397Z,24.70
2019-04-25T09:48:23.172Z,23.92
2019-04-25T09:51:03.569Z,23.66
2019-04-25T09:53:34.846Z,23.59
2019-04-25T09:56:17.554Z,23.64
2019-04-25T09:58:53.974Z,22.18
2019-04-25T10:01:24.014Z,22.37
2019-04-25T10:03:54.271Z,22.61
2019-04-25T10:06:23.390Z,22.58
2019-04-25T10:08:51.905Z,22.73
2019-04-25T10:11:23.622Z,23.19
2019-04-25T10:14:06.879Z,23.14
2019-04-25T10:16:35.395Z,22.74
2019-04-25T10:19:03.935Z,23.05
2019-04-25T10:21:32.354Z,21.90
2019-04-25T10:24:01.063Z,21.73
2019-04-25T10:26:29.595Z,22.70
2019-04-25T10:28:57.958Z,22.67
2019-04-25T10:31:26.603Z,22.06
2019-04-25T10:33:55.243Z,22.00
2019-04-25T10:36:24.699Z,21.17
2019-04-25T10:39:04.076Z,21.16
2019-04-25T10:41:24.483Z,21.79
2019-04-25T10:43:54.660Z,21.45
2019-04-25T10:46:24.416Z,22.00
2019-04-25T10:48:55.947Z,21.60
2019-04-25T10:51:23.966Z,21.09
2019-04-25T10:53:53.872Z,21.58
2019-04-25T10:56:24.238Z,21.07
2019-04-25T10:58:54.783Z,21.77
2019-04-25T11:01:24.410Z,22.04
2019-04-25T11:03:55.707Z,21.50
2019-04-25T11:06:25.766Z,21.87
2019-04-25T11:08:56.446Z,22.20
2019-04-25T11:11:24.502Z,22.72
2019-04-25T11:13:55.651Z,22.16
2019-04-25T11:16:24.302Z,22.42
2019-04-25T11:18:54.770Z,22.41
2019-04-25T11:21:24.250Z,22.64
2019-04-25T11:23:55.055Z,22.80
2019-04-25T11:26:23.344Z,22.14
2019-04-25T11:28:51.800Z,21.92
2019-04-25T11:31:23.382Z,22.37
2019-04-25T11:33:52.001Z,22.00
2019-04-25T11:36:20.393Z,21.87
2019-04-25T11:39:06.762Z,20.45
2019-04-25T11:41:35.586Z,21.28
2019-04-25T11:44:04.275Z,21.22
2019-04-25T11:46:33.316Z,20.26
2019-04-25T11:49:01.819Z,19.59
2019-04-25T11:51:30.113Z,19.89
2019-04-25T11:53:58.525Z,19.70
2019-04-25T11:56:26.920Z,19.96
2019-04-25T11:58:55.541Z,20.40
2019-04-25T12:01:24.444Z,20.36
2019-04-25T12:03:52.773Z,20.25
2019-04-25T12:06:21.158Z,20.22
2019-04-25T12:08:49.732Z,19.77
2019-04-25T12:11:18.019Z,19.89
2019-04-25T12:13:47.820Z,19.57
2019-04-25T12:16:17.277Z,19.14
2019-04-25T12:18:48.062Z,18.58
2019-04-25T12:21:15.999Z,16.85
2019-04-25T12:23:46.413Z,17.15
2019-04-25T12:26:14.583Z,16.90
2019-04-25T12:28:42.970Z,16.33
2019-04-25T12:31:13.266Z,16.01
2019-04-25T12:33:41.616Z,16.25
2019-04-25T12:36:10.010Z,15.97
2019-04-25T12:38:38.554Z,16.01
2019-04-25T12:41:06.976Z,15.69
2019-04-25T12:43:37.156Z,15.69
2019-04-25T12:46:07.224Z,15.43
2019-04-25T12:48:35.690Z,15.12
2019-04-25T12:51:04.436Z,15.29
2019-04-25T12:53:33.450Z,14.99
2019-04-25T12:56:04.383Z,15.46
2019-04-25T12:58:33.454Z,15.83
2019-04-25T13:01:01.979Z,16.25
2019-04-25T13:03:30.514Z,16.34
2019-04-25T13:05:59.048Z,15.97
2019-04-25T13:08:27.817Z,16.22
2019-04-25T13:11:07.557Z,16.86
2019-04-25T13:13:26.182Z,17.08
2019-04-25T13:15:54.703Z,17.17
2019-04-25T13:18:23.111Z,16.57
2019-04-25T13:20:51.541Z,16.58
2019-04-25T13:23:20.282Z,16.91
2019-04-25T13:25:49.252Z,16.79
2019-04-25T13:28:19.263Z,16.77
2019-04-25T13:31:01.510Z,16.59
2019-04-25T13:33:36.064Z,16.46
2019-04-25T13:36:06.478Z,16.85
2019-04-25T13:38:34.867Z,16.24
2019-04-25T13:41:04.083Z,16.76
2019-04-25T13:43:32.735Z,16.65
2019-04-25T13:46:01.125Z,16.56
2019-04-25T13:48:29.512Z,16.35
2019-04-25T13:50:58.000Z,16.04
2019-04-25T13:53:27.284Z,16.28
2019-04-25T13:55:55.841Z,15.78
2019-04-25T13:58:25.505Z,16.01
2019-04-25T14:00:53.869Z,16.14
2019-04-25T14:03:22.968Z,15.90
2019-04-25T14:05:53.956Z,15.94
2019-04-25T14:08:24.415Z,16.09
2019-04-25T14:10:54.205Z,16.02
2019-04-25T14:13:25.132Z,16.28
2019-04-25T14:15:54.721Z,16.58
2019-04-25T14:18:31.495Z,16.32
2019-04-25T14:21:10.113Z,16.45
2019-04-25T14:23:38.734Z,16.00
2019-04-25T14:26:07.249Z,15.98
2019-04-25T14:28:35.920Z,15.21
2019-04-25T14:31:04.724Z,15.10
2019-04-25T14:33:34.875Z,14.30
2019-04-25T14:36:03.247Z,14.82
2019-04-25T14:38:31.661Z,15.03
2019-04-25T14:41:00.295Z,14.92
2019-04-25T14:43:29.061Z,14.87
2019-04-25T14:45:58.168Z,14.64
2019-04-25T14:48:27.222Z,14.86
2019-04-25T14:50:55.649Z,14.94
2019-04-25T14:53:24.406Z,15.13
2019-04-25T14:56:09.614Z,15.49
2019-04-25T14:58:39.689Z,15.62
2019-04-25T15:01:08.306Z,15.89
2019-04-25T15:03:36.875Z,16.03
2019-04-25T15:06:06.109Z,15.69
2019-04-25T15:08:34.605Z,15.79
2019-04-25T15:11:03.081Z,16.01
2019-04-25T15:13:31.867Z,15.88
2019-04-25T15:16:00.493Z,16.31
2019-04-25T15:18:28.874Z,16.29
2019-04-25T15:20:57.250Z,16.63
2019-04-25T15:23:25.685Z,16.70
2019-04-25T15:25:54.065Z,16.91
2019-04-25T15:28:24.379Z,16.67
2019-04-25T15:30:53.315Z,16.43
2019-04-25T15:33:21.997Z,16.41
2019-04-25T15:35:55.007Z,16.44
2019-04-25T15:38:25.019Z,16.44
2019-04-25T15:40:55.145Z,16.44
2019-04-25T15:43:31.422Z,16.50
2019-04-25T15:46:04.143Z,16.37
2019-04-25T15:48:33.230Z,16.29
2019-04-25T15:51:01.841Z,16.40
2019-04-25T15:53:30.642Z,16.44
2019-04-25T15:55:59.546Z,16.59
2019-04-25T15:58:28.080Z,16.67
2019-04-25T16:00:56.839Z,16.65
2019-04-25T16:03:25.152Z,16.77
2019-04-25T16:05:53.776Z,16.95
2019-04-25T16:08:22.268Z,16.99
2019-04-25T16:10:50.685Z,17.04
2019-04-25T16:13:19.226Z,17.12
2019-04-25T16:15:47.680Z,17.15
2019-04-25T16:18:16.316Z,17.39
2019-04-25T16:20:44.772Z,17.60
2019-04-25T16:23:13.504Z,17.73
2019-04-25T16:25:41.876Z,18.01
2019-04-25T16:28:10.572Z,18.38
2019-04-25T16:30:40.818Z,18.75
2019-04-25T16:33:09.953Z,18.76
2019-04-25T16:35:38.694Z,19.11
2019-04-25T16:38:07.294Z,19.14
2019-04-25T16:40:36.233Z,19.57
2019-04-25T16:43:07.011Z,19.82
2019-04-25T16:45:37.760Z,19.87
2019-04-25T16:48:06.454Z,19.84
2019-04-25T16:50:35.108Z,19.75
2019-04-25T16:53:03.485Z,19.55
2019-04-25T16:55:32.512Z,19.74
2019-04-25T16:58:01.056Z,19.92
2019-04-25T17:00:40.836Z,19.89
2019-04-25T17:03:09.490Z,19.97
2019-04-25T17:05:39.343Z,20.13
2019-04-25T17:08:08.161Z,20.07
2019-04-25T17:10:36.918Z,20.18
2019-04-25T17:13:06.734Z,20.22
2019-04-25T17:15:52.100Z,20.36
2019-04-25T17:18:22.080Z,20.51
2019-04-25T17:21:01.364Z,20.57
2019-04-25T17:23:30.104Z,20.67
2019-04-25T17:25:59.328Z,20.78
2019-04-25T17:28:30.335Z,20.84
2019-04-25T17:31:01.588Z,20.85
2019-04-25T17:33:32.317Z,20.87
2019-04-25T17:36:02.626Z,20.99
2019-04-25T17:38:36.158Z,20.88
2019-04-25T17:41:04.627Z,20.98
2019-04-25T17:43:34.238Z,21.10
2019-04-25T17:46:04.728Z,21.11
2019-04-25T17:48:34.076Z,21.12
2019-04-25T17:51:02.671Z,21.17
2019-04-25T17:53:32.936Z,21.13
2019-04-25T17:56:01.446Z,21.25
2019-04-25T17:58:29.806Z,21.21
2019-04-25T18:00:58.638Z,21.38
2019-04-25T18:03:28.919Z,21.38
2019-04-25T18:05:57.568Z,21.48
2019-04-25T18:08:26.278Z,21.62
2019-04-25T18:10:54.639Z,21.54
2019-04-25T18:13:23.184Z,21.85
2019-04-25T18:15:59.211Z,22.15
2019-04-25T18:18:45.670Z,22.05
2019-04-25T18:21:14.166Z,22.17
2019-04-25T18:24:00.332Z,22.48
2019-04-25T18:26:33.231Z,22.89
2019-04-25T18:29:14.595Z,22.78
2019-04-25T18:31:43.856Z,22.85
2019-04-25T18:34:13.966Z,23.01
2019-04-25T18:36:55.908Z,24.35
2019-04-25T18:39:25.905Z,24.91
2019-04-25T18:41:55.684Z,25.17
2019-04-25T18:44:24.162Z,25.21
2019-04-25T18:46:52.665Z,25.55
2019-04-25T18:49:21.053Z,25.93
2019-04-25T18:51:57.524Z,26.36
2019-04-25T18:54:25.127Z,26.33
2019-04-25T18:57:01.066Z,28.77
2019-04-25T18:59:48.219Z,31.98
2019-04-25T19:02:33.901Z,32.98
2019-04-25T19:05:03.965Z,33.91
2019-04-25T19:07:32.437Z,34.38
2019-04-25T19:10:00.914Z,34.75
2019-04-25T19:12:29.302Z,34.69
2019-04-25T19:14:57.976Z,35.35
2019-04-25T19:17:26.400Z,36.44
2019-04-25T19:19:55.032Z,36.04
2019-04-25T19:22:23.667Z,36.54
2019-04-25T19:24:52.250Z,37.19
2019-04-25T19:27:24.047Z,37.04
2019-04-25T19:29:52.533Z,37.31
2019-04-25T19:32:21.145Z,37.79
2019-04-25T19:34:49.525Z,37.64
2019-04-25T19:37:17.966Z,38.87
2019-04-25T19:40:04.317Z,39.14
2019-04-25T19:42:34.402Z,39.10
2019-04-25T19:45:03.014Z,39.69
2019-04-25T19:47:31.420Z,40.06
2019-04-25T19:49:59.976Z,40.91
2019-04-25T19:52:29.695Z,40.56
2019-04-25T19:54:58.107Z,40.42
2019-04-25T19:57:26.888Z,40.89
2019-04-25T19:59:56.738Z,40.69
2019-04-25T20:02:29.305Z,41.28
2019-04-25T20:04:59.322Z,41.46
2019-04-25T20:07:37.953Z,41.55
2019-04-25T20:10:09.148Z,42.04
2019-04-25T20:12:45.396Z,42.31
2019-04-25T20:15:15.430Z,42.71
2019-04-25T20:17:44.838Z,43.32
2019-04-25T20:20:14.150Z,42.91
2019-04-25T20:22:42.526Z,43.51
2019-04-25T20:25:11.233Z,43.69
2019-04-25T20:27:39.606Z,43.76
2019-04-25T20:30:08.451Z,43.30
2019-04-25T20:32:36.829Z,43.01
2019-04-25T20:35:05.450Z,43.16
2019-04-25T20:37:33.735Z,43.03
2019-04-25T20:40:03.733Z,43.99
2019-04-25T20:42:32.009Z,43.29
2019-04-25T20:45:00.362Z,43.21
2019-04-25T20:47:28.751Z,43.52
2019-04-25T20:49:57.793Z,42.99
2019-04-25T20:52:27.890Z,43.20
2019-04-25T20:54:56.975Z,43.54
2019-04-25T20:57:25.390Z,43.38
2019-04-25T20:59:53.923Z,43.23
2019-04-25T21:02:22.179Z,43.57
2019-04-25T21:04:50.606Z,43.79
2019-04-25T21:07:19.034Z,43.12
2019-04-25T21:09:47.445Z,43.25
2019-04-25T21:12:15.889Z,43.25
2019-04-25T21:14:45.939Z,43.26
2019-04-25T21:17:18.831Z,43.40
2019-04-25T21:19:54.796Z,43.42
2019-04-25T21:22:23.073Z,43.48
2019-04-25T21:24:51.870Z,43.60
2019-04-25T21:27:20.536Z,43.36
2019-04-25T21:29:49.020Z,43.15
2019-04-25T21:32:19.217Z,43.52
2019-04-25T21:34:47.546Z,43.24
2019-04-25T21:37:16.386Z,43.69
2019-04-25T21:39:47.754Z,43.46
2019-04-25T21:42:21.344Z,43.74
2019-04-25T21:44:50.141Z,44.04
2019-04-25T21:47:18.597Z,44.19
2019-04-25T21:49:47.350Z,43.98
2019-04-25T21:52:15.760Z,43.97
2019-04-25T21:54:44.504Z,44.01
2019-04-25T21:57:13.131Z,44.39
2019-04-25T21:59:41.717Z,44.54
2019-04-25T22:02:10.097Z,44.34
2019-04-25T22:04:41.241Z,44.27
2019-04-25T22:07:08.865Z,44.72
2019-04-25T22:09:37.525Z,44.41
2019-04-25T22:12:08.171Z,45.06
2019-04-25T22:14:36.547Z,44.78
2019-04-25T22:17:06.000Z,44.82
2019-04-25T22:19:35.013Z,45.38
2019-04-25T22:22:04.696Z,45.62
2019-04-25T22:24:33.173Z,45.73
2019-04-25T22:27:03.360Z,45.30
2019-04-25T22:29:33.330Z,45.48
2019-04-25T22:32:03.474Z,46.06
2019-04-25T22:34:33.855Z,45.96
2019-04-25T22:37:02.334Z,46.08
2019-04-25T22:39:30.939Z,46.39
2019-04-25T22:41:59.756Z,46.43
2019-04-25T22:44:29.372Z,46.77
2019-04-25T22:46:58.074Z,46.81
2019-04-25T22:49:26.443Z,47.11
2019-04-25T22:51:54.800Z,47.24
2019-04-25T22:54:23.875Z,47.18
2019-04-25T22:56:52.276Z,46.81
2019-04-25T22:59:20.944Z,47.02
2019-04-25T23:01:51.037Z,47.50
2019-04-25T23:04:36.291Z,47.32
2019-04-25T23:07:05.929Z,47.82
2019-04-25T23:09:36.347Z,47.69
2019-04-25T23:12:06.659Z,47.82
2019-04-25T23:14:35.462Z,47.71
2019-04-25T23:17:04.990Z,47.52
2019-04-25T23:19:33.337Z,47.97
2019-04-25T23:22:01.708Z,48.12
2019-04-25T23:24:31.675Z,48.40
2019-04-25T23:27:14.377Z,48.59
2019-04-25T23:29:42.794Z,48.92
2019-04-25T23:32:12.432Z,48.59
2019-04-25T23:34:40.837Z,48.39
2019-04-25T23:37:09.308Z,48.31
2019-04-25T23:39:37.985Z,48.38
2019-04-25T23:42:07.294Z,48.78
2019-04-25T23:44:35.903Z,48.69
2019-04-25T23:47:04.269Z,48.47
2019-04-25T23:49:32.597Z,48.25
2019-04-25T23:52:01.125Z,48.32
2019-04-25T23:54:29.521Z,48.50
2019-04-25T23:56:58.105Z,48.93
2019-04-25T23:59:26.582Z,48.98
